createdAt,value
2018-09-06T00:01:36.642Z,18.90
2018-09-06T00:04:05.015Z,18.90
2018-09-06T00:06:33.346Z,19.00
2018-09-06T00:09:01.654Z,19.00
2018-09-06T00:11:29.961Z,19.00
2018-09-06T00:13:58.319Z,19.00
2018-09-06T00:16:26.634Z,19.00
2018-09-06T00:18:54.978Z,19.00
2018-09-06T00:21:23.303Z,18.90
2018-09-06T00:23:51.644Z,19.00
2018-09-06T00:26:19.918Z,19.00
2018-09-06T00:28:48.244Z,19.10
2018-09-06T00:31:16.769Z,19.10
2018-09-06T00:33:45.198Z,19.00
2018-09-06T00:36:13.553Z,18.90
2018-09-06T00:38:41.856Z,18.70
2018-09-06T00:41:10.170Z,18.80
2018-09-06T00:43:38.481Z,18.70
2018-09-06T00:46:07.108Z,18.80
2018-09-06T00:48:35.441Z,18.80
2018-09-06T00:51:03.775Z,18.80
2018-09-06T00:53:32.106Z,18.80
2018-09-06T00:56:00.462Z,18.80
2018-09-06T00:58:28.824Z,18.90
2018-09-06T01:00:57.138Z,18.80
2018-09-06T01:03:25.492Z,18.90
2018-09-06T01:05:53.842Z,19.00
2018-09-06T01:08:22.226Z,19.00
2018-09-06T01:10:50.534Z,18.90
2018-09-06T01:13:18.904Z,18.90
2018-09-06T01:15:47.195Z,18.90
2018-09-06T01:18:15.623Z,19.00
2018-09-06T01:20:43.946Z,18.90
2018-09-06T01:23:12.324Z,18.90
2018-09-06T01:25:46.012Z,18.90
2018-09-06T01:28:14.310Z,18.80
2018-09-06T01:30:42.669Z,18.80
2018-09-06T01:33:10.989Z,18.80
2018-09-06T01:35:43.518Z,18.80
2018-09-06T01:38:15.922Z,18.80
2018-09-06T01:40:44.246Z,18.80
2018-09-06T01:43:12.587Z,18.80
2018-09-06T01:45:41.581Z,18.80
2018-09-06T01:48:10.650Z,18.80
2018-09-06T01:50:38.926Z,18.80
2018-09-06T01:53:07.436Z,18.80
2018-09-06T01:55:35.935Z,18.70
2018-09-06T01:58:04.517Z,18.70
2018-09-06T02:00:32.894Z,18.70
2018-09-06T02:03:01.226Z,18.60
2018-09-06T02:05:30.510Z,18.70
2018-09-06T02:07:59.255Z,18.50
2018-09-06T02:10:27.571Z,18.50
2018-09-06T02:12:55.986Z,18.60
2018-09-06T02:15:24.328Z,18.60
2018-09-06T02:17:52.666Z,18.60
2018-09-06T02:20:20.998Z,18.60
2018-09-06T02:22:49.318Z,18.50
2018-09-06T02:25:17.682Z,18.50
2018-09-06T02:27:45.974Z,18.60
2018-09-06T02:30:14.315Z,18.70
2018-09-06T02:32:42.617Z,18.80
2018-09-06T02:35:10.951Z,18.70
2018-09-06T02:37:39.623Z,18.60
2018-09-06T02:40:10.431Z,18.70
2018-09-06T02:42:38.786Z,18.70
2018-09-06T02:45:07.383Z,18.70
2018-09-06T02:47:40.722Z,18.70
2018-09-06T02:50:14.428Z,18.60
2018-09-06T02:52:42.841Z,18.50
2018-09-06T02:55:11.171Z,18.50
2018-09-06T02:57:39.499Z,18.40
2018-09-06T03:00:07.863Z,18.50
2018-09-06T03:02:36.149Z,18.40
2018-09-06T03:05:04.571Z,18.50
2018-09-06T03:07:32.979Z,18.50
2018-09-06T03:10:01.303Z,18.70
2018-09-06T03:12:29.591Z,18.80
2018-09-06T03:14:57.905Z,18.80
2018-09-06T03:17:26.237Z,18.70
2018-09-06T03:19:54.596Z,18.70
2018-09-06T03:22:22.966Z,18.70
2018-09-06T03:24:51.273Z,18.80
2018-09-06T03:27:19.762Z,18.80
2018-09-06T03:29:48.090Z,18.80
2018-09-06T03:32:16.714Z,18.80
2018-09-06T03:34:45.033Z,18.90
2018-09-06T03:37:13.387Z,18.80
2018-09-06T03:39:41.737Z,18.80
2018-09-06T03:42:10.043Z,18.70
2018-09-06T03:44:38.388Z,18.70
2018-09-06T03:47:06.678Z,18.80
2018-09-06T03:49:34.972Z,18.70
2018-09-06T03:52:03.295Z,18.70
2018-09-06T03:54:31.587Z,18.80
2018-09-06T03:56:59.995Z,18.80
2018-09-06T03:59:28.387Z,18.70
2018-09-06T04:01:56.675Z,18.70
2018-09-06T04:04:24.994Z,18.70
2018-09-06T04:06:53.326Z,18.70
2018-09-06T04:09:21.655Z,18.60
2018-09-06T04:11:50.016Z,18.00
2018-09-06T04:14:18.374Z,18.60
2018-09-06T04:16:46.697Z,18.50
2018-09-06T04:19:15.008Z,18.50
2018-09-06T04:21:43.312Z,18.60
2018-09-06T04:24:11.652Z,18.60
2018-09-06T04:26:39.965Z,18.60
2018-09-06T04:29:08.340Z,18.60
2018-09-06T04:31:36.641Z,18.60
2018-09-06T04:34:05.047Z,18.60
2018-09-06T04:36:33.339Z,18.60
2018-09-06T04:39:01.684Z,18.70
2018-09-06T04:41:30.007Z,18.80
2018-09-06T04:43:58.565Z,18.80
2018-09-06T04:46:26.871Z,18.70
2018-09-06T04:48:55.207Z,18.70
2018-09-06T04:51:23.574Z,18.60
2018-09-06T04:53:51.912Z,18.60
2018-09-06T04:56:20.244Z,18.60
2018-09-06T04:58:48.531Z,18.60
2018-09-06T05:01:16.971Z,18.60
2018-09-06T05:03:45.350Z,18.60
2018-09-06T05:06:13.700Z,19.30
2018-09-06T05:08:42.023Z,18.50
2018-09-06T05:11:10.319Z,18.50
2018-09-06T05:13:38.665Z,18.50
2018-09-06T05:16:06.951Z,18.50
2018-09-06T05:18:35.304Z,18.50
2018-09-06T05:21:03.667Z,18.50
2018-09-06T05:23:32.015Z,18.50
2018-09-06T05:26:00.778Z,18.40
2018-09-06T05:28:29.186Z,18.30
2018-09-06T05:30:57.439Z,18.30
2018-09-06T05:33:26.050Z,18.30
2018-09-06T05:35:54.354Z,18.30
2018-09-06T05:38:22.651Z,18.30
2018-09-06T05:40:51.939Z,18.30
2018-09-06T05:43:20.315Z,18.30
2018-09-06T05:45:48.624Z,18.30
2018-09-06T05:48:17.036Z,18.30
2018-09-06T05:50:45.321Z,18.30
2018-09-06T05:53:13.598Z,18.30
2018-09-06T05:55:41.915Z,18.30
2018-09-06T05:58:10.319Z,18.30
2018-09-06T06:00:42.936Z,18.30
2018-09-06T06:03:11.432Z,18.30
2018-09-06T06:05:39.763Z,18.30
2018-09-06T06:08:19.624Z,18.30
2018-09-06T06:10:49.236Z,18.40
2018-09-06T06:13:17.680Z,18.60
2018-09-06T06:15:46.176Z,18.50
2018-09-06T06:18:14.554Z,18.40
2018-09-06T06:20:42.940Z,18.40
2018-09-06T06:23:11.606Z,18.40
2018-09-06T06:25:40.079Z,18.40
2018-09-06T06:28:08.482Z,18.50
2018-09-06T06:30:37.882Z,18.50
2018-09-06T06:33:06.384Z,18.60
2018-09-06T06:35:34.803Z,18.60
2018-09-06T06:38:03.212Z,18.60
2018-09-06T06:40:31.609Z,18.60
2018-09-06T06:43:00.194Z,18.70
2018-09-06T06:45:28.623Z,18.70
2018-09-06T06:47:57.095Z,18.80
2018-09-06T06:50:25.599Z,18.80
2018-09-06T06:52:54.066Z,18.80
2018-09-06T06:55:22.490Z,18.80
2018-09-06T06:57:50.949Z,18.80
2018-09-06T07:00:21.584Z,18.90
2018-09-06T07:02:50.839Z,18.90
2018-09-06T07:05:19.531Z,19.00
2018-09-06T07:07:48.182Z,19.00
2018-09-06T07:10:16.599Z,19.00
2018-09-06T07:12:45.070Z,19.00
2018-09-06T07:15:13.705Z,18.90
2018-09-06T07:17:42.265Z,18.90
2018-09-06T07:20:10.646Z,18.90
2018-09-06T07:22:39.072Z,18.80
2018-09-06T07:25:07.463Z,18.80
2018-09-06T07:27:35.901Z,18.80
2018-09-06T07:30:04.421Z,18.80
2018-09-06T07:32:32.798Z,18.70
2018-09-06T07:35:01.288Z,18.70
2018-09-06T07:37:29.826Z,18.80
2018-09-06T07:39:58.236Z,18.70
2018-09-06T07:42:26.672Z,18.80
2018-09-06T07:44:55.056Z,18.80
2018-09-06T07:47:23.502Z,18.80
2018-09-06T07:49:51.908Z,18.80
2018-09-06T07:52:20.439Z,18.80
2018-09-06T07:54:48.794Z,18.90
2018-09-06T07:57:17.281Z,18.90
2018-09-06T07:59:45.778Z,18.80
2018-09-06T08:02:14.135Z,18.80
2018-09-06T08:04:42.556Z,18.80
2018-09-06T08:07:10.938Z,18.80
2018-09-06T08:09:39.316Z,18.80
2018-09-06T08:12:07.821Z,18.80
2018-09-06T08:14:36.229Z,18.80
2018-09-06T08:17:04.752Z,18.70
2018-09-06T08:19:33.175Z,18.70
2018-09-06T08:22:01.633Z,18.60
2018-09-06T08:24:30.141Z,18.60
2018-09-06T08:26:58.529Z,18.60
2018-09-06T08:29:26.916Z,18.60
2018-09-06T08:31:55.368Z,18.60
2018-09-06T08:34:23.891Z,18.50
2018-09-06T08:36:52.298Z,18.50
2018-09-06T08:39:20.707Z,18.50
2018-09-06T08:41:49.715Z,18.50
2018-09-06T08:44:18.146Z,18.60
2018-09-06T08:46:46.561Z,18.60
2018-09-06T08:49:15.254Z,18.60
2018-09-06T08:51:43.712Z,18.60
2018-09-06T08:54:12.096Z,18.60
2018-09-06T08:56:40.493Z,18.70
2018-09-06T08:59:08.989Z,18.70
2018-09-06T09:01:38.624Z,18.90
2018-09-06T09:04:07.329Z,18.90
2018-09-06T09:06:35.929Z,18.90
2018-09-06T09:09:07.355Z,18.90
2018-09-06T09:11:35.788Z,18.90
2018-09-06T09:14:04.333Z,18.90
2018-09-06T09:16:32.703Z,19.00
2018-09-06T09:19:01.110Z,19.10
2018-09-06T09:21:29.579Z,19.20
2018-09-06T09:23:58.168Z,19.20
2018-09-06T09:26:26.691Z,19.30
2018-09-06T09:28:55.132Z,19.40
2018-09-06T09:31:23.543Z,19.60
2018-09-06T09:33:52.077Z,19.50
2018-09-06T09:36:20.453Z,19.70
2018-09-06T09:38:48.858Z,19.70
2018-09-06T09:41:17.420Z,19.70
2018-09-06T09:43:45.843Z,19.80
2018-09-06T09:48:41.898Z,20.20
2018-09-06T09:51:10.756Z,20.50
2018-09-06T09:53:39.259Z,20.70
2018-09-06T09:56:07.956Z,21.00
2018-09-06T09:58:37.364Z,21.30
2018-09-06T10:01:06.131Z,21.30
2018-09-06T10:03:39.763Z,21.40
2018-09-06T10:06:13.752Z,21.60
2018-09-06T10:08:47.566Z,21.70
2018-09-06T10:11:16.164Z,21.90
2018-09-06T10:13:44.540Z,21.70
2018-09-06T10:16:12.972Z,21.60
2018-09-06T10:18:41.326Z,21.40
2018-09-06T10:21:09.787Z,21.80
2018-09-06T10:23:38.346Z,22.00
2018-09-06T10:26:06.937Z,22.00
2018-09-06T10:28:35.313Z,21.60
2018-09-06T10:31:03.699Z,21.70
2018-09-06T10:33:32.135Z,21.40
2018-09-06T10:36:00.499Z,21.30
2018-09-06T10:38:28.960Z,21.20
2018-09-06T10:40:57.346Z,21.00
2018-09-06T10:43:25.862Z,21.20
2018-09-06T10:45:54.403Z,21.40
2018-09-06T10:48:23.544Z,21.40
2018-09-06T10:50:51.903Z,21.50
2018-09-06T10:53:20.314Z,21.30
2018-09-06T10:55:48.756Z,21.10
2018-09-06T10:58:17.207Z,20.90
2018-09-06T11:00:45.607Z,20.70
2018-09-06T11:03:14.076Z,20.50
2018-09-06T11:05:42.407Z,20.40
2018-09-06T11:08:10.973Z,20.30
2018-09-06T11:10:39.484Z,20.40
2018-09-06T11:13:07.933Z,20.20
2018-09-06T11:15:36.290Z,20.10
2018-09-06T11:18:04.736Z,20.10
2018-09-06T11:20:33.101Z,20.00
2018-09-06T11:23:01.464Z,20.00
2018-09-06T11:25:29.969Z,19.90
2018-09-06T11:27:58.420Z,19.80
2018-09-06T11:30:26.782Z,19.80
2018-09-06T11:32:55.139Z,19.80
2018-09-06T11:35:24.437Z,19.80
2018-09-06T11:37:52.771Z,19.70
2018-09-06T11:40:21.160Z,19.60
2018-09-06T11:42:49.513Z,19.70
2018-09-06T11:45:17.876Z,19.70
2018-09-06T11:47:46.412Z,19.90
2018-09-06T11:50:14.700Z,19.90
2018-09-06T11:52:43.063Z,20.00
2018-09-06T11:55:11.401Z,19.90
2018-09-06T11:57:39.825Z,19.80
2018-09-06T12:00:08.243Z,19.80
2018-09-06T12:02:36.657Z,19.80
2018-09-06T12:05:05.120Z,19.60
2018-09-06T12:07:33.565Z,19.30
2018-09-06T12:10:01.938Z,19.20
2018-09-06T12:12:30.283Z,19.00
2018-09-06T12:14:58.603Z,18.80
2018-09-06T12:17:26.938Z,18.70
2018-09-06T12:19:55.346Z,18.40
2018-09-06T12:22:23.675Z,18.20
2018-09-06T12:24:52.051Z,18.10
2018-09-06T12:27:20.433Z,18.10
2018-09-06T12:29:48.782Z,18.20
2018-09-06T12:32:17.219Z,18.20
2018-09-06T12:34:45.630Z,18.20
2018-09-06T12:37:14.856Z,18.20
2018-09-06T12:39:44.764Z,18.10
2018-09-06T12:42:13.222Z,18.00
2018-09-06T12:44:42.228Z,18.10
2018-09-06T12:47:10.880Z,18.00
2018-09-06T12:49:40.032Z,18.00
2018-09-06T12:52:08.452Z,18.00
2018-09-06T12:54:36.999Z,18.10
2018-09-06T12:57:05.492Z,18.20
2018-09-06T12:59:33.885Z,18.40
2018-09-06T13:02:02.222Z,18.60
2018-09-06T13:04:30.541Z,18.60
2018-09-06T13:06:58.903Z,18.60
2018-09-06T13:09:27.296Z,18.60
2018-09-06T13:11:55.643Z,18.60
2018-09-06T13:14:23.976Z,18.50
2018-09-06T13:16:52.359Z,18.50
2018-09-06T13:19:20.798Z,18.40
2018-09-06T13:21:49.133Z,18.40
2018-09-06T13:24:17.566Z,18.50
2018-09-06T13:26:45.988Z,18.50
2018-09-06T13:29:14.337Z,18.50
2018-09-06T13:31:42.722Z,18.70
2018-09-06T13:34:11.241Z,18.70
2018-09-06T13:36:39.592Z,18.80
2018-09-06T13:39:09.508Z,18.70
2018-09-06T13:41:37.855Z,18.70
2018-09-06T13:44:06.285Z,18.80
2018-09-06T13:46:35.904Z,18.80
2018-09-06T13:49:08.075Z,18.90
2018-09-06T13:51:36.551Z,19.10
2018-09-06T13:54:04.951Z,19.30
2018-09-06T13:56:33.357Z,19.80
2018-09-06T13:59:01.791Z,20.30
2018-09-06T14:01:31.287Z,21.00
2018-09-06T14:03:59.723Z,21.50
2018-09-06T14:06:28.300Z,21.50
2018-09-06T14:08:56.735Z,21.70
2018-09-06T14:11:26.058Z,21.60
2018-09-06T14:13:54.397Z,21.00
2018-09-06T14:16:22.750Z,20.50
2018-09-06T14:18:51.128Z,20.40
2018-09-06T14:21:19.503Z,20.10
2018-09-06T14:23:47.952Z,19.90
2018-09-06T14:26:16.440Z,19.80
2018-09-06T14:28:44.808Z,19.70
2018-09-06T14:31:13.236Z,19.50
2018-09-06T14:33:41.568Z,19.40
2018-09-06T14:36:10.461Z,19.30
2018-09-06T14:38:38.830Z,19.30
2018-09-06T14:41:07.115Z,19.50
2018-09-06T14:43:35.478Z,19.40
2018-09-06T14:46:04.064Z,19.30
2018-09-06T14:48:32.611Z,19.10
2018-09-06T14:51:01.026Z,19.10
2018-09-06T14:53:29.396Z,19.10
2018-09-06T14:55:57.881Z,19.10
2018-09-06T14:58:26.276Z,19.30
2018-09-06T15:00:54.657Z,19.30
2018-09-06T15:03:23.024Z,19.20
2018-09-06T15:05:51.495Z,19.20
2018-09-06T15:08:19.879Z,19.10
2018-09-06T15:10:48.343Z,19.20
2018-09-06T15:13:16.707Z,19.30
2018-09-06T15:15:45.049Z,19.50
2018-09-06T15:18:13.462Z,19.70
2018-09-06T15:20:41.898Z,19.70
2018-09-06T15:23:10.317Z,19.70
2018-09-06T15:25:38.700Z,19.90
2018-09-06T15:28:07.255Z,20.10
2018-09-06T15:30:36.416Z,20.10
2018-09-06T15:33:08.524Z,19.90
2018-09-06T15:35:39.401Z,20.00
2018-09-06T15:38:08.142Z,20.70
2018-09-06T15:40:38.648Z,21.70
2018-09-06T15:43:07.501Z,22.90
2018-09-06T15:45:36.380Z,22.70
2018-09-06T15:48:06.027Z,22.70
2018-09-06T15:50:34.996Z,25.40
2018-09-06T15:53:03.743Z,26.80
2018-09-06T15:55:32.333Z,27.00
2018-09-06T15:58:00.666Z,26.40
2018-09-06T16:00:28.992Z,26.80
2018-09-06T16:02:57.461Z,26.50
2018-09-06T16:05:26.514Z,25.30
2018-09-06T16:07:54.973Z,25.70
2018-09-06T16:10:23.716Z,23.10
2018-09-06T16:12:52.042Z,21.70
2018-09-06T16:15:21.426Z,21.60
2018-09-06T16:17:50.380Z,20.80
2018-09-06T16:20:18.741Z,20.20
2018-09-06T16:22:47.144Z,19.90
2018-09-06T16:25:15.906Z,19.60
2018-09-06T16:27:44.599Z,19.50
2018-09-06T16:30:13.003Z,19.70
2018-09-06T16:32:41.357Z,19.50
2018-09-06T16:35:13.995Z,19.40
2018-09-06T16:37:42.411Z,19.50
2018-09-06T16:40:10.775Z,19.80
2018-09-06T16:42:39.163Z,19.70
2018-09-06T16:45:07.463Z,19.60
2018-09-06T16:47:37.243Z,19.90
2018-09-06T16:50:05.643Z,19.70
2018-09-06T16:52:34.137Z,19.40
2018-09-06T16:55:02.500Z,19.40
2018-09-06T16:57:30.824Z,19.30
2018-09-06T16:59:59.222Z,19.20
2018-09-06T17:02:27.583Z,18.90
2018-09-06T17:04:55.967Z,19.10
2018-09-06T17:07:24.428Z,19.20
2018-09-06T17:09:52.852Z,19.10
2018-09-06T17:12:21.332Z,19.10
2018-09-06T17:14:49.764Z,19.10
2018-09-06T17:17:18.207Z,19.00
2018-09-06T17:19:46.711Z,19.00
2018-09-06T17:22:16.497Z,19.10
2018-09-06T17:24:44.847Z,19.00
2018-09-06T17:27:24.546Z,18.80
2018-09-06T17:29:53.277Z,18.90
2018-09-06T17:32:21.673Z,18.90
2018-09-06T17:34:50.712Z,18.90
2018-09-06T17:37:19.052Z,18.90
2018-09-06T17:39:47.444Z,18.90
2018-09-06T17:42:15.815Z,18.80
2018-09-06T17:44:44.182Z,19.00
2018-09-06T17:47:12.560Z,18.90
2018-09-06T17:49:40.952Z,19.00
2018-09-06T17:52:09.343Z,18.80
2018-09-06T17:54:37.921Z,18.90
2018-09-06T17:57:06.145Z,18.70
2018-09-06T17:59:34.522Z,18.90
2018-09-06T18:02:02.826Z,18.60
2018-09-06T18:04:31.124Z,18.30
2018-09-06T18:06:59.452Z,18.20
2018-09-06T18:09:27.846Z,18.20
2018-09-06T18:11:56.207Z,18.20
2018-09-06T18:14:24.716Z,18.00
2018-09-06T18:16:53.056Z,18.20
2018-09-06T18:19:21.462Z,18.20
2018-09-06T18:21:49.750Z,18.00
2018-09-06T18:24:18.070Z,17.30
2018-09-06T18:26:46.390Z,16.90
2018-09-06T18:29:14.920Z,16.70
2018-09-06T18:31:43.279Z,16.50
2018-09-06T18:34:11.622Z,16.40
2018-09-06T18:36:39.963Z,16.30
2018-09-06T18:39:08.308Z,16.20
2018-09-06T18:41:36.720Z,16.10
2018-09-06T18:44:05.165Z,16.00
2018-09-06T18:46:33.432Z,16.00
2018-09-06T18:49:02.184Z,16.00
2018-09-06T18:51:30.512Z,16.00
2018-09-06T18:53:58.975Z,15.90
2018-09-06T18:56:27.642Z,15.90
2018-09-06T18:58:56.061Z,15.90
2018-09-06T19:01:24.457Z,15.90
2018-09-06T19:03:52.793Z,15.90
2018-09-06T19:06:21.280Z,15.80
2018-09-06T19:08:49.762Z,15.90
2018-09-06T19:11:18.491Z,15.90
2018-09-06T19:13:47.785Z,15.90
2018-09-06T19:16:17.357Z,15.90
2018-09-06T19:18:45.798Z,15.90
2018-09-06T19:21:15.320Z,15.90
2018-09-06T19:23:43.775Z,15.90
2018-09-06T19:26:12.320Z,15.90
2018-09-06T19:28:40.665Z,15.80
2018-09-06T19:31:09.101Z,15.80
2018-09-06T19:33:37.900Z,15.80
2018-09-06T19:36:06.327Z,15.80
2018-09-06T19:38:34.656Z,15.80
2018-09-06T19:41:03.008Z,15.80
2018-09-06T19:43:31.358Z,15.80
2018-09-06T19:45:59.809Z,15.80
2018-09-06T19:48:28.141Z,15.70
2018-09-06T19:50:56.572Z,15.60
2018-09-06T19:53:24.971Z,15.60
2018-09-06T19:55:53.275Z,15.60
2018-09-06T19:58:21.828Z,15.50
2018-09-06T20:00:50.167Z,15.40
2018-09-06T20:03:18.579Z,15.30
2018-09-06T20:05:47.369Z,15.30
2018-09-06T20:08:15.802Z,15.20
2018-09-06T20:10:44.132Z,15.20
2018-09-06T20:13:12.554Z,15.20
2018-09-06T20:15:41.020Z,15.20
2018-09-06T20:18:09.506Z,15.20
2018-09-06T20:20:38.330Z,15.20
2018-09-06T20:23:06.787Z,15.20
2018-09-06T20:25:35.228Z,15.20
2018-09-06T20:28:03.696Z,15.20
2018-09-06T20:30:34.319Z,15.10
2018-09-06T20:33:04.531Z,15.10
2018-09-06T20:35:32.907Z,15.10
2018-09-06T20:38:01.564Z,15.20
2018-09-06T20:40:29.865Z,15.20
2018-09-06T20:42:58.282Z,15.20
2018-09-06T20:45:27.784Z,15.20
2018-09-06T20:47:56.186Z,15.20
2018-09-06T20:50:24.543Z,15.20
2018-09-06T20:52:52.908Z,15.20
2018-09-06T20:55:21.343Z,15.20
2018-09-06T20:57:49.629Z,15.20
2018-09-06T21:00:17.920Z,15.10
2018-09-06T21:02:46.255Z,15.20
2018-09-06T21:05:14.804Z,15.20
2018-09-06T21:07:43.151Z,15.20
2018-09-06T21:10:11.560Z,15.20
2018-09-06T21:12:39.909Z,15.20
2018-09-06T21:15:08.395Z,15.20
2018-09-06T21:17:36.795Z,15.20
2018-09-06T21:20:06.304Z,15.20
2018-09-06T21:22:34.760Z,15.20
2018-09-06T21:25:03.183Z,15.20
2018-09-06T21:27:31.600Z,15.40
2018-09-06T21:30:00.054Z,15.40
2018-09-06T21:32:28.426Z,15.30
2018-09-06T21:34:56.875Z,15.30
2018-09-06T21:37:25.368Z,15.30
2018-09-06T21:39:53.872Z,15.30
2018-09-06T21:42:22.162Z,15.30
2018-09-06T21:44:50.685Z,15.30
2018-09-06T21:47:19.033Z,15.40
2018-09-06T21:49:47.366Z,15.40
2018-09-06T21:52:15.770Z,15.40
2018-09-06T21:54:44.224Z,15.40
2018-09-06T21:57:12.556Z,15.40
2018-09-06T21:59:40.863Z,15.30
2018-09-06T22:02:13.506Z,15.40
2018-09-06T22:04:41.834Z,15.30
2018-09-06T22:09:44.781Z,15.30
2018-09-06T22:12:17.765Z,15.30
2018-09-06T22:14:47.757Z,15.30
2018-09-06T22:17:16.444Z,15.30
2018-09-06T22:19:45.218Z,15.30
2018-09-06T22:22:13.611Z,15.30
2018-09-06T22:24:42.515Z,15.30
2018-09-06T22:27:10.938Z,15.30
2018-09-06T22:29:39.286Z,15.30
2018-09-06T22:32:07.622Z,15.30
2018-09-06T22:34:35.977Z,15.30
2018-09-06T22:37:04.507Z,15.30
2018-09-06T22:39:32.871Z,15.30
2018-09-06T22:42:01.282Z,15.30
2018-09-06T22:44:29.606Z,15.30
2018-09-06T22:46:58.071Z,15.30
2018-09-06T22:49:26.466Z,15.30
2018-09-06T22:51:55.438Z,15.30
2018-09-06T22:54:23.808Z,15.30
2018-09-06T22:56:52.240Z,15.30
2018-09-06T22:59:20.609Z,15.30
2018-09-06T23:01:48.976Z,15.40
2018-09-06T23:04:17.835Z,15.40
2018-09-06T23:06:46.217Z,15.40
2018-09-06T23:09:14.563Z,15.40
2018-09-06T23:11:42.970Z,15.40
2018-09-06T23:14:11.359Z,15.50
2018-09-06T23:16:39.701Z,15.40
2018-09-06T23:19:08.051Z,15.40
2018-09-06T23:21:36.430Z,15.50
2018-09-06T23:24:04.874Z,15.50
2018-09-06T23:26:33.186Z,15.40
2018-09-06T23:29:01.515Z,15.40
2018-09-06T23:31:29.861Z,15.40
2018-09-06T23:33:58.178Z,15.40
2018-09-06T23:36:26.530Z,15.30
2018-09-06T23:38:54.911Z,15.30
2018-09-06T23:41:23.427Z,15.20
2018-09-06T23:43:51.778Z,15.20
2018-09-06T23:46:20.119Z,15.10
2018-09-06T23:48:48.455Z,15.00
2018-09-06T23:51:16.908Z,15.00
2018-09-06T23:53:45.189Z,15.00
2018-09-06T23:56:13.534Z,15.00
2018-09-06T23:58:41.933Z,15.00
